Time;durP1;ratioP1;P1;durP2;ratioP2;P2;SDS_P1;SDS_P2;PMS_P1;PMS_P2;Temp;Humidity;BMP_temperature;BMP_pressure;BME280_temperature;BME280_humidity;BME280_pressure;Samples;Min_cycle;Max_cycle;Signal;HPM_P1;HPM_P2
2022/04/17 00:05:29;;;;;;;6.60;2.57;;;;;;;5.59;70.77;101956.50;10459785;28;20228;-68
2022/04/17 00:10:33;;;;;;;6.67;2.57;;;;;;;5.56;70.00;101952.94;10459028;28;20185;-68
2022/04/17 00:15:36;;;;;;;6.90;2.60;;;;;;;5.43;71.21;101949.09;10458671;28;20231;-70
2022/04/17 00:20:41;;;;;;;7.30;2.50;;;;;;;5.37;72.86;101946.28;10461282;28;20218;-68
2022/04/17 00:25:45;;;;;;;5.97;2.50;;;;;;;5.25;74.68;101947.50;10466370;28;20185;-68
2022/04/17 00:30:48;;;;;;;6.33;2.57;;;;;;;5.19;75.70;101953.34;10469463;28;20219;-68
2022/04/17 00:35:53;;;;;;;6.80;2.50;;;;;;;5.15;71.95;101946.31;10466005;28;20272;-67
2022/04/17 00:40:56;;;;;;;6.13;2.70;;;;;;;5.10;73.50;101947.84;10465759;28;20224;-69
2022/04/17 00:46:00;;;;;;;10.30;3.07;;;;;;;5.01;75.32;101944.91;10465710;28;20219;-70
2022/04/17 00:51:06;;;;;;;8.80;2.50;;;;;;;4.95;75.11;101949.84;10465822;28;20220;-70
2022/04/17 00:56:10;;;;;;;8.17;2.43;;;;;;;4.94;73.60;101940.34;10465166;28;20215;-70
2022/04/17 01:01:13;;;;;;;4.77;2.10;;;;;;;4.92;70.74;101938.56;10466584;28;20228;-69
2022/04/17 01:06:18;;;;;;;7.97;2.17;;;;;;;4.84;72.80;101932.22;10464349;28;20216;-68
2022/04/17 01:11:22;;;;;;;5.70;2.70;;;;;;;4.80;74.16;101933.81;10465132;28;20231;-69
2022/04/17 01:16:27;;;;;;;4.73;2.40;;;;;;;4.77;72.28;101931.13;10464396;28;20231;-69
2022/04/17 01:21:32;;;;;;;6.07;2.20;;;;;;;4.70;74.29;101935.16;10464282;28;20231;-71
2022/04/17 01:31:58;;;;;;;6.60;2.43;;;;;;;4.76;74.43;101919.09;10462187;28;20217;-73
2022/04/17 01:37:04;;;;;;;6.20;2.30;;;;;;;4.63;76.60;101912.59;10463201;28;20227;-70
2022/04/17 01:42:07;;;;;;;7.03;2.60;;;;;;;4.70;74.89;101908.56;10463341;28;20216;-70
2022/04/17 01:47:11;;;;;;;7.47;2.43;;;;;;;4.66;73.75;101906.69;10462746;28;20220;-72
2022/04/17 01:52:15;;;;;;;5.70;2.27;;;;;;;4.54;75.67;101907.09;10463260;28;20554;-71
2022/04/17 01:57:19;;;;;;;6.33;2.17;;;;;;;4.51;76.36;101903.53;10463887;28;20368;-68
2022/04/17 02:02:22;;;;;;;5.83;2.27;;;;;;;4.51;74.14;101900.97;10462632;28;20217;-69
2022/04/17 02:07:27;;;;;;;5.13;2.23;;;;;;;4.49;73.97;101894.88;10462547;28;20683;-71
2022/04/17 02:12:31;;;;;;;7.03;2.47;;;;;;;4.34;76.13;101900.31;10461705;28;20241;-69
2022/04/17 02:17:36;;;;;;;5.27;2.30;;;;;;;4.25;76.03;101894.81;10462122;28;20219;-71
2022/04/17 02:22:40;;;;;;;7.43;2.53;;;;;;;4.16;77.27;101897.00;10461809;28;20227;-71
2022/04/17 02:27:44;;;;;;;7.93;2.40;;;;;;;4.18;77.17;101894.50;10462546;28;20221;-70
2022/04/17 02:32:47;;;;;;;5.27;2.00;;;;;;;4.08;78.32;101889.81;10461358;28;20223;-72
2022/04/17 02:37:51;;;;;;;4.87;2.30;;;;;;;4.14;77.13;101887.50;10460601;28;20216;-68
2022/04/17 02:42:55;;;;;;;5.47;2.53;;;;;;;4.06;77.52;101884.59;10460390;28;20664;-69
2022/04/17 02:47:58;;;;;;;6.37;2.30;;;;;;;4.03;78.81;101889.63;10460586;28;20226;-68
2022/04/17 02:53:03;;;;;;;5.53;2.20;;;;;;;4.06;78.68;101889.75;10461844;28;20221;-70
2022/04/17 02:58:07;;;;;;;5.80;2.80;;;;;;;3.99;79.30;101895.44;10460141;28;20229;-69
2022/04/17 03:08:32;;;;;;;6.80;2.60;;;;;;;3.99;79.15;101886.84;10459742;28;20212;-69
2022/04/17 03:13:35;;;;;;;8.17;2.80;;;;;;;3.95;81.01;101895.28;10459414;28;20262;-72
2022/04/17 03:18:39;;;;;;;7.43;2.67;;;;;;;3.90;82.23;101892.50;10459129;28;20247;-68
2022/04/17 03:23:43;;;;;;;8.70;2.57;;;;;;;3.85;79.96;101896.56;10459571;28;20680;-70
2022/04/17 03:28:47;;;;;;;7.47;2.50;;;;;;;3.78;83.87;101899.69;10459182;28;20540;-67
2022/04/17 03:33:51;;;;;;;6.43;2.30;;;;;;;3.79;84.24;101903.16;10459017;28;20246;-69
2022/04/17 03:38:55;;;;;;;7.23;2.83;;;;;;;3.68;85.64;101900.13;10459206;28;20695;-67
2022/04/17 03:44:03;;;;;;;10.17;3.23;;;;;;;3.64;85.54;101900.84;10458545;28;20614;-68
2022/04/17 03:49:07;;;;;;;7.70;2.83;;;;;;;3.60;86.90;101898.94;10459449;28;20244;-68
2022/04/17 03:54:12;;;;;;;7.43;3.00;;;;;;;3.57;87.81;101898.81;10459790;28;20212;-68
2022/04/17 03:59:15;;;;;;;10.17;4.03;;;;;;;3.68;88.76;101894.09;10466989;28;20224;-67
2022/04/17 04:04:19;;;;;;;8.37;3.30;;;;;;;3.68;87.09;101889.84;10466826;28;20223;-69
2022/04/17 04:09:23;;;;;;;8.53;2.90;;;;;;;3.69;88.11;101888.19;10466977;28;20220;-69
2022/04/17 04:14:27;;;;;;;6.60;2.93;;;;;;;3.66;88.42;101890.63;10463917;28;20255;-69
2022/04/17 04:19:30;;;;;;;13.60;6.13;;;;;;;3.60;88.35;101892.91;10115858;28;9999790;-73
2022/04/17 04:24:35;;;;;;;6.87;2.67;;;;;;;3.63;89.60;101896.50;10462609;28;20698;-68
2022/04/17 04:29:39;;;;;;;7.70;2.80;;;;;;;3.57;90.65;101897.94;10462254;28;20216;-68
2022/04/17 04:34:43;;;;;;;10.13;5.23;;;;;;;3.66;90.75;101899.19;10462295;28;20216;-74
2022/04/17 04:39:47;;;;;;;10.00;2.90;;;;;;;3.68;91.38;101899.25;10462255;28;20592;-70
2022/04/17 04:46:06;;;;;;;7.43;3.03;;;;;;;3.74;90.26;101891.81;10462180;28;20236;-70
2022/04/17 04:50:15;;;;;;;7.37;2.83;;;;;;;3.65;91.44;101905.13;10462475;28;20222;-68
2022/04/17 04:55:22;;;;;;;9.27;3.00;;;;;;;3.72;91.01;101902.03;10469163;28;20274;-70
2022/04/17 05:00:25;;;;;;;7.27;3.73;;;;;;;3.74;91.63;101902.06;10478680;28;20227;-69
2022/04/17 05:05:29;;;;;;;8.97;3.10;;;;;;;3.75;90.89;101898.69;10460532;28;20225;-69
2022/04/17 05:10:33;;;;;;;6.70;2.90;;;;;;;3.70;93.33;101903.63;10461433;28;20217;-68
2022/04/17 05:15:37;;;;;;;7.53;3.07;;;;;;;3.78;94.47;101904.81;10445152;28;20343;-70
2022/04/17 05:20:41;;;;;;;6.30;2.80;;;;;;;3.81;93.23;101906.66;10460605;28;20221;-69
2022/04/17 05:25:47;;;;;;;6.67;2.83;;;;;;;3.91;93.58;101904.53;10460044;28;20249;-71
2022/04/17 05:30:51;;;;;;;7.70;2.73;;;;;;;4.04;93.73;101906.78;10460313;28;20232;-70
2022/04/17 05:35:54;;;;;;;8.27;2.90;;;;;;;4.12;91.22;101904.53;10460260;28;20547;-69
2022/04/17 05:40:59;;;;;;;9.23;3.13;;;;;;;4.06;92.16;101900.03;10461542;28;20232;-70
2022/04/17 05:46:02;;;;;;;8.77;3.07;;;;;;;4.11;92.62;101902.75;10459640;28;20316;-70
2022/04/17 05:51:05;;;;;;;8.17;3.13;;;;;;;4.23;91.52;101898.13;10459450;28;20216;-69
2022/04/17 05:56:10;;;;;;;8.50;3.17;;;;;;;4.32;91.71;101896.81;10459035;28;20682;-70
2022/04/17 06:01:16;;;;;;;10.70;3.30;;;;;;;4.37;91.99;101903.00;10459145;28;20303;-70
2022/04/17 06:06:19;;;;;;;7.67;3.37;;;;;;;4.57;90.32;101901.22;10460753;28;20231;-66
2022/04/17 06:11:24;;;;;;;29.27;12.83;;;;;;;4.62;91.17;101900.53;10458478;28;20317;-67
2022/04/17 06:16:27;;;;;;;8.13;3.90;;;;;;;4.87;91.04;101911.81;10458483;28;20240;-66
2022/04/17 06:21:32;;;;;;;9.90;3.87;;;;;;;4.94;90.58;101903.47;10457875;28;20235;-66
2022/04/17 06:26:36;;;;;;;5.87;2.87;;;;;;;4.98;88.57;101919.09;10458141;28;20215;-68
2022/04/17 06:31:45;;;;;;;32.83;14.00;;;;;;;5.04;88.59;101918.44;10457697;28;20223;-68
2022/04/17 06:36:48;;;;;;;9.20;3.87;;;;;;;5.21;86.88;101915.63;10458870;28;20235;-70
2022/04/17 06:41:54;;;;;;;7.93;3.43;;;;;;;5.33;86.74;101904.94;10457504;28;20228;-70
2022/04/17 06:46:57;;;;;;;8.67;3.67;;;;;;;5.46;84.79;101905.41;10456896;28;20220;-73
2022/04/17 06:52:01;;;;;;;10.33;3.43;;;;;;;5.45;85.54;101913.94;10457146;28;20551;-70
2022/04/17 06:57:06;;;;;;;7.50;3.63;;;;;;;5.72;85.62;101912.34;10457150;28;20205;-70
2022/04/17 07:02:09;;;;;;;9.37;3.57;;;;;;;5.73;84.80;101915.78;10458992;28;20228;-70
2022/04/17 07:07:13;;;;;;;8.43;3.87;;;;;;;5.93;83.66;101921.66;10457112;28;20238;-70
2022/04/17 07:12:17;;;;;;;9.87;3.40;;;;;;;5.99;84.01;101912.41;10456099;28;20523;-69
2022/04/17 07:17:21;;;;;;;9.57;4.60;;;;;;;5.98;84.69;101904.63;10456441;28;20216;-70
2022/04/17 07:22:24;;;;;;;8.10;3.40;;;;;;;5.98;82.73;101909.78;10455897;28;20268;-72
2022/04/17 07:27:29;;;;;;;7.70;3.50;;;;;;;6.06;82.91;101906.63;10456058;28;20250;-72
2022/04/17 07:32:34;;;;;;;9.07;3.40;;;;;;;6.12;81.83;101908.53;10458056;28;20403;-71
2022/04/17 07:37:38;;;;;;;6.13;2.90;;;;;;;6.03;81.57;101909.13;10456510;28;20217;-71
2022/04/17 07:42:44;;;;;;;8.70;3.50;;;;;;;6.14;83.18;101906.91;10455578;28;20315;-74
2022/04/17 07:47:48;;;;;;;9.17;3.37;;;;;;;6.23;80.36;101907.22;10455931;28;20319;-72
2022/04/17 07:52:53;;;;;;;6.97;3.23;;;;;;;6.32;80.78;101894.59;10455459;28;20224;-70
2022/04/17 07:58:03;;;;;;;8.00;3.97;;;;;;;6.26;80.18;101899.56;10457922;28;20232;-70
2022/04/17 08:03:20;;;;;;;7.47;3.27;;;;;;;6.44;80.25;101900.13;10455018;28;20224;-69
2022/04/17 08:08:24;;;;;;;7.20;3.27;;;;;;;6.66;78.90;101889.66;10455362;28;20217;-70
2022/04/17 08:13:29;;;;;;;6.20;2.77;;;;;;;6.80;77.86;101885.75;10455364;28;20723;-70
2022/04/17 08:18:33;;;;;;;6.97;3.10;;;;;;;6.93;77.39;101878.44;10454575;28;20227;-71
2022/04/17 08:23:37;;;;;;;7.67;3.17;;;;;;;7.00;75.95;101882.06;10456055;28;20235;-70
2022/04/17 08:28:42;;;;;;;8.63;2.50;;;;;;;7.09;73.54;101881.44;10454952;28;20228;-71
2022/04/17 08:33:46;;;;;;;7.53;2.60;;;;;;;7.03;72.60;101883.03;10454434;28;20559;-68
2022/04/17 08:38:49;;;;;;;8.13;2.97;;;;;;;7.10;71.83;101873.75;10454636;28;20304;-69
2022/04/17 08:43:55;;;;;;;6.97;2.80;;;;;;;7.22;70.72;101865.47;10460926;28;20226;-70
2022/04/17 08:48:58;;;;;;;7.40;3.43;;;;;;;7.30;69.64;101867.41;10462165;28;20226;-71
2022/04/17 08:54:03;;;;;;;7.33;2.93;;;;;;;7.54;69.73;101852.56;10448152;28;20308;-72
2022/04/17 08:59:08;;;;;;;7.13;2.87;;;;;;;7.79;67.51;101849.78;10461567;28;20619;-73
2022/04/17 09:04:12;;;;;;;5.60;3.00;;;;;;;8.10;66.49;101835.88;10443835;28;20315;-64
2022/04/17 09:09:19;;;;;;;6.50;2.77;;;;;;;8.32;64.47;101820.06;10461250;28;20221;-68
2022/04/17 09:14:24;;;;;;;6.70;2.97;;;;;;;8.47;63.87;101814.34;10463136;28;20543;-72
2022/04/17 09:19:27;;;;;;;4.80;2.00;;;;;;;8.83;62.37;101810.84;10467766;28;20529;-71
2022/04/17 09:24:31;;;;;;;4.70;2.13;;;;;;;9.06;61.14;101803.50;10464510;28;20231;-67
2022/04/17 09:29:37;;;;;;;4.90;2.37;;;;;;;9.63;58.31;101788.13;10463947;28;20220;-70
2022/04/17 09:34:45;;;;;;;6.67;2.13;;;;;;;11.07;56.87;101779.78;10463541;28;20231;-73
2022/04/17 09:39:50;;;;;;;5.27;2.07;;;;;;;11.92;53.90;101762.34;10463194;28;20208;-70
2022/04/17 09:44:55;;;;;;;6.63;2.27;;;;;;;13.19;52.39;101756.88;10464257;28;20262;-71
2022/04/17 09:50:00;;;;;;;4.40;2.27;;;;;;;14.16;48.31;101735.94;10463768;28;20221;-66
2022/04/17 09:55:05;;;;;;;4.63;1.90;;;;;;;14.93;46.54;101713.84;10461516;28;20225;-70
2022/04/17 10:00:12;;;;;;;3.93;1.67;;;;;;;14.64;43.87;101723.59;10462668;28;20196;-67
2022/04/17 10:05:17;;;;;;;5.27;2.13;;;;;;;15.41;42.30;101707.41;10462406;28;20221;-67
2022/04/17 10:10:20;;;;;;;4.23;1.80;;;;;;;16.17;41.31;101700.56;10462592;28;20197;-67
2022/04/17 10:15:25;;;;;;;4.63;2.07;;;;;;;17.22;41.62;101674.63;10462314;28;20702;-66
2022/04/17 10:20:31;;;;;;;4.67;2.00;;;;;;;17.91;39.30;101683.06;10462170;28;20647;-64
2022/04/17 10:25:36;;;;;;;4.93;2.30;;;;;;;17.73;40.26;101669.41;10461522;28;20217;-68
2022/04/17 10:30:57;;;;;;;3.90;1.60;;;;;;;15.69;40.33;101666.16;10461810;28;20234;-68
2022/04/17 10:36:16;;;;;;;5.70;2.20;;;;;;;15.06;40.05;101659.72;10461526;28;20199;-69
2022/04/17 10:41:22;;;;;;;5.53;1.77;;;;;;;14.95;39.78;101653.69;10463592;28;20224;-70
2022/04/17 10:46:27;;;;;;;4.90;2.27;;;;;;;16.82;38.58;101641.19;10460905;28;20195;-73
2022/04/17 10:51:32;;;;;;;5.57;2.53;;;;;;;15.86;38.60;101638.06;10460748;28;20214;-70
2022/04/17 10:56:36;;;;;;;4.90;2.47;;;;;;;15.11;40.42;101634.41;10460732;28;20490;-68
2022/04/17 11:01:55;;;;;;;4.73;2.13;;;;;;;14.69;41.07;101626.88;10460295;28;20550;-70
2022/04/17 11:07:22;;;;;;;5.63;1.93;;;;;;;15.58;37.72;101623.53;10461760;28;20265;-71
2022/04/17 11:12:27;;;;;;;4.90;1.87;;;;;;;15.05;38.82;101603.06;10459803;28;20545;-71
2022/04/17 11:17:33;;;;;;;4.27;1.50;;;;;;;17.27;37.04;101582.72;10459675;28;20225;-73
2022/04/17 11:22:38;;;;;;;3.80;1.50;;;;;;;18.92;35.22;101580.09;10459529;28;20221;-70
2022/04/17 11:27:45;;;;;;;3.77;1.77;;;;;;;17.17;35.06;101575.91;10459709;28;20529;-71
2022/04/17 11:33:10;;;;;;;4.50;1.13;;;;;;;19.14;33.94;101563.72;10461300;28;20641;-70
2022/04/17 11:38:13;;;;;;;4.03;1.40;;;;;;;19.33;34.00;101550.97;10459332;28;20216;-72
2022/04/17 11:43:17;;;;;;;3.97;1.80;;;;;;;19.10;33.41;101548.06;10458800;28;20216;-71
2022/04/17 11:48:29;;;;;;;4.70;1.83;;;;;;;18.61;34.41;101543.16;10458828;28;20544;-70
2022/04/17 11:53:33;;;;;;;3.93;1.80;;;;;;;20.16;32.96;101540.69;10455801;28;20224;-70
2022/04/17 11:58:36;;;;;;;3.93;1.23;;;;;;;21.24;30.78;101516.00;10108967;28;10000999;-73
2022/04/17 12:03:46;;;;;;;4.05;1.13;;;;;;;19.82;30.84;101518.84;10455499;28;20311;-70
2022/04/17 12:08:49;;;;;;;3.07;1.30;;;;;;;21.10;29.77;101505.03;10455129;28;20224;-73
2022/04/17 12:13:56;;;;;;;2.95;1.20;;;;;;;21.65;30.04;101506.56;10455440;28;20237;-70
2022/04/17 12:19:00;;;;;;;3.70;1.40;;;;;;;22.71;29.64;101493.50;10445839;28;20205;-69
2022/04/17 12:24:04;;;;;;;5.55;1.55;;;;;;;20.79;29.95;101495.56;10465218;28;20217;-70
2022/04/17 12:29:08;;;;;;;5.40;1.70;;;;;;;21.06;28.34;101497.25;10446350;28;20201;-71
2022/04/17 12:34:16;;;;;;;3.53;1.48;;;;;;;20.01;31.62;101476.09;10462944;28;20197;-71
2022/04/17 12:39:31;;;;;;;3.35;1.63;;;;;;;19.31;30.32;101465.91;10463218;28;20244;-72
2022/04/17 12:44:35;;;;;;;3.08;1.23;;;;;;;18.16;33.16;101486.34;10462873;28;20222;-70
2022/04/17 12:49:40;;;;;;;3.87;1.40;;;;;;;18.53;33.11;101475.88;10463313;28;20185;-72
2022/04/17 12:54:43;;;;;;;3.80;1.23;;;;;;;17.34;33.99;101474.13;10463422;28;20196;-73
2022/04/17 12:59:48;;;;;;;4.03;1.60;;;;;;;17.57;33.88;101465.81;10461867;28;20201;-72
2022/04/17 13:04:55;;;;;;;3.38;1.40;;;;;;;22.07;28.90;101443.25;10461462;28;20217;-76
2022/04/17 13:10:01;;;;;;;4.07;1.50;;;;;;;24.06;28.34;101426.47;10461646;28;20189;-71
2022/04/17 13:15:07;;;;;;;6.80;1.40;;;;;;;22.14;28.30;101434.16;10445833;28;20310;-70
2022/04/17 13:20:12;;;;;;;3.65;1.40;;;;;;;20.09;30.03;101431.00;10461096;28;20669;-70
2022/04/17 13:25:17;;;;;;;3.35;1.38;;;;;;;19.48;30.63;101425.00;10460848;28;20670;-69
2022/04/17 13:30:22;;;;;;;3.75;1.25;;;;;;;21.92;26.44;101412.16;10460563;28;20283;-73
2022/04/17 13:35:26;;;;;;;3.28;1.55;;;;;;;20.73;28.92;101400.75;10460406;28;20196;-72
2022/04/17 13:40:31;;;;;;;3.15;1.20;;;;;;;19.44;29.76;101410.22;10460618;28;20573;-70
2022/04/17 13:45:35;;;;;;;4.40;1.30;;;;;;;18.62;30.60;101409.91;10459785;28;20672;-75
2022/04/17 13:50:39;;;;;;;3.93;1.27;;;;;;;18.45;29.79;101391.06;10460047;28;20197;-70
2022/04/17 13:55:44;;;;;;;3.27;1.10;;;;;;;17.50;30.95;101399.44;10459212;28;20224;-75
2022/04/17 14:00:48;;;;;;;4.57;1.00;;;;;;;17.31;33.55;101391.06;10459391;28;20200;-70
2022/04/17 14:05:53;;;;;;;3.70;1.17;;;;;;;16.44;32.98;101391.88;10460514;28;20307;-70
2022/04/17 14:10:57;;;;;;;2.70;0.90;;;;;;;16.28;34.31;101393.00;10458183;28;20227;-71
2022/04/17 14:16:00;;;;;;;3.57;1.13;;;;;;;17.21;31.67;101378.16;10459015;28;20240;-70
2022/04/17 14:21:05;;;;;;;2.83;1.00;;;;;;;17.70;31.76;101373.59;10458636;28;20216;-69
2022/04/17 14:26:08;;;;;;;2.80;1.10;;;;;;;18.36;30.93;101360.59;10458093;28;20567;-72
2022/04/17 14:31:12;;;;;;;3.87;1.30;;;;;;;17.61;31.73;101360.69;10459762;28;20618;-71
2022/04/17 14:36:17;;;;;;;3.30;1.00;;;;;;;16.19;31.78;101352.13;10440621;28;20660;-71
2022/04/17 14:41:21;;;;;;;3.93;1.00;;;;;;;15.66;33.53;101347.75;10457190;28;20221;-70
2022/04/17 14:46:24;;;;;;;3.40;1.00;;;;;;;17.08;32.84;101334.72;10457176;28;20246;-70
2022/04/17 14:51:29;;;;;;;3.63;1.00;;;;;;;18.31;31.42;101334.41;10457071;28;20213;-69
2022/04/17 14:56:32;;;;;;;2.30;1.00;;;;;;;18.76;30.46;101323.59;10458215;28;20217;-72
2022/04/17 15:01:39;;;;;;;2.33;0.90;;;;;;;18.40;30.82;101312.31;10456859;28;20212;-69
2022/04/17 15:06:43;;;;;;;2.67;0.90;;;;;;;16.96;32.46;101319.25;10456631;28;20727;-70
2022/04/17 15:11:47;;;;;;;2.73;0.90;;;;;;;16.37;33.21;101325.63;10456481;28;20237;-68
2022/04/17 15:16:50;;;;;;;4.10;1.00;;;;;;;15.71;34.78;101319.75;10456354;28;20256;-68
2022/04/17 15:21:56;;;;;;;4.67;1.00;;;;;;;15.00;34.23;101320.75;10456439;28;20333;-72
2022/04/17 15:26:59;;;;;;;3.17;1.13;;;;;;;14.90;35.44;101313.03;10455977;28;20823;-71
2022/04/17 15:32:03;;;;;;;4.93;1.00;;;;;;;14.69;35.36;101308.06;10455715;28;20216;-69
2022/04/17 15:37:08;;;;;;;3.00;1.13;;;;;;;14.99;35.41;101313.81;10472024;28;20307;-69
2022/04/17 15:42:11;;;;;;;4.17;1.00;;;;;;;14.79;35.80;101304.44;10456499;28;20497;-69
2022/04/17 15:52:36;;;;;;;3.03;0.90;;;;;;;14.85;34.09;101292.19;10454495;28;20758;-71
2022/04/17 15:57:40;;;;;;;2.33;0.90;;;;;;;14.42;36.93;101288.34;10471023;28;20233;-72
2022/04/17 16:02:44;;;;;;;2.97;1.40;;;;;;;14.13;37.43;101295.59;10455588;28;20227;-68
2022/04/17 16:07:48;;;;;;;4.63;1.07;;;;;;;13.93;37.06;101294.03;10456460;28;20559;-72
2022/04/17 16:12:53;;;;;;;2.43;0.87;;;;;;;14.02;37.02;101283.50;10455048;28;20232;-69
2022/04/17 16:17:56;;;;;;;3.37;1.20;;;;;;;13.75;37.51;101282.84;10455070;28;20609;-67
2022/04/17 16:23:01;;;;;;;3.97;0.97;;;;;;;13.74;40.65;101280.25;10454800;28;20237;-70
2022/04/17 16:28:05;;;;;;;2.47;0.80;;;;;;;13.68;37.35;101277.72;10454945;28;20289;-72
2022/04/17 16:33:08;;;;;;;2.60;1.00;;;;;;;13.41;36.82;101276.16;10455930;28;20216;-68
2022/04/17 16:38:13;;;;;;;2.27;0.83;;;;;;;13.40;39.57;101264.00;10454784;28;20213;-70
2022/04/17 16:43:16;;;;;;;3.37;1.00;;;;;;;13.14;39.29;101265.03;10453839;28;20664;-71
2022/04/17 16:48:19;;;;;;;2.47;1.00;;;;;;;13.04;39.04;101265.97;10454347;28;20223;-71
2022/04/17 16:53:24;;;;;;;5.87;1.17;;;;;;;12.91;39.62;101259.09;10454174;28;20220;-71
2022/04/17 17:03:50;;;;;;;3.23;0.90;;;;;;;12.51;42.33;101258.38;10458741;28;20537;-68
2022/04/17 17:08:55;;;;;;;2.93;1.00;;;;;;;12.35;42.13;101264.50;10461005;28;20225;-70
2022/04/17 17:13:59;;;;;;;2.87;1.30;;;;;;;12.22;43.13;101263.66;10443989;28;20241;-70
2022/04/17 17:19:02;;;;;;;2.97;1.07;;;;;;;12.17;42.36;101264.53;10461046;28;20244;-64
2022/04/17 17:24:07;;;;;;;5.23;1.60;;;;;;;12.19;39.45;101253.28;10444737;28;20244;-68
2022/04/17 17:29:10;;;;;;;6.50;1.60;;;;;;;11.94;41.90;101261.13;10460393;28;20217;-68
2022/04/17 17:34:14;;;;;;;2.77;0.97;;;;;;;11.63;41.34;101262.84;10443422;28;20672;-68
2022/04/17 17:39:19;;;;;;;4.77;1.20;;;;;;;11.48;43.57;101268.91;10460436;28;20660;-68
2022/04/17 17:44:25;;;;;;;3.70;1.10;;;;;;;11.40;43.18;101268.03;10460246;28;20225;-69
2022/04/17 17:49:29;;;;;;;4.27;1.47;;;;;;;11.30;44.04;101268.00;10461631;28;20720;-70
2022/04/17 17:54:33;;;;;;;5.57;1.90;;;;;;;11.23;43.07;101259.31;10459728;28;20243;-70
2022/04/17 17:59:38;;;;;;;5.27;2.10;;;;;;;11.07;43.41;101267.97;10459258;28;20303;-70
2022/04/17 18:04:42;;;;;;;4.83;1.80;;;;;;;10.90;44.30;101261.88;10459633;28;20248;-72
2022/04/17 18:15:12;;;;;;;5.20;2.10;;;;;;;10.69;41.91;101264.38;10458556;28;20672;-70
2022/04/17 18:20:18;;;;;;;6.33;2.37;;;;;;;10.52;44.24;101271.22;10458862;28;20679;-69
2022/04/17 18:25:25;;;;;;;6.53;2.57;;;;;;;10.39;45.69;101272.88;10458710;28;20641;-68
2022/04/17 18:30:28;;;;;;;8.40;3.83;;;;;;;10.33;44.44;101272.00;10458584;28;20212;-68
2022/04/17 18:35:35;;;;;;;8.97;3.77;;;;;;;10.20;47.08;101278.84;10457877;28;20233;-69
2022/04/17 18:40:40;;;;;;;7.17;3.10;;;;;;;10.11;45.85;101283.94;10458495;28;20279;-70
2022/04/17 18:45:43;;;;;;;7.03;3.50;;;;;;;10.02;46.00;101278.69;10457665;28;20209;-67
2022/04/17 18:50:47;;;;;;;9.30;3.67;;;;;;;9.91;44.07;101282.06;10457718;28;20265;-68
2022/04/17 18:55:52;;;;;;;8.63;3.37;;;;;;;9.90;43.38;101273.44;10457435;28;20197;-69
2022/04/17 19:00:55;;;;;;;9.70;3.63;;;;;;;9.82;44.01;101272.47;10457314;28;20195;-69
2022/04/17 19:05:59;;;;;;;9.03;5.00;;;;;;;9.72;44.31;101272.41;10457393;28;20235;-66
2022/04/17 19:16:20;;;;;;;8.83;4.23;;;;;;;9.50;46.16;101267.88;10456193;28;20688;-67
2022/04/17 19:21:24;;;;;;;11.17;3.77;;;;;;;9.31;48.13;101265.16;10456435;28;20189;-71
2022/04/17 19:26:29;;;;;;;10.17;4.40;;;;;;;9.16;47.19;101270.16;10456157;28;20216;-68
2022/04/17 19:36:54;;;;;;;11.50;4.57;;;;;;;9.07;46.42;101253.69;10458606;28;20261;-70
2022/04/17 19:41:59;;;;;;;10.70;5.17;;;;;;;8.94;48.24;101255.25;10456026;28;20200;-69
2022/04/17 19:47:03;;;;;;;10.33;4.70;;;;;;;8.88;48.20;101262.97;10456033;28;20345;-69
2022/04/17 19:52:06;;;;;;;10.93;5.13;;;;;;;8.69;49.05;101260.16;10456011;28;20284;-67
2022/04/17 19:57:11;;;;;;;11.33;5.00;;;;;;;8.58;50.56;101248.78;10455699;28;20211;-68
2022/04/17 20:02:17;;;;;;;13.23;6.03;;;;;;;8.54;50.49;101255.63;10459981;28;20339;-67
2022/04/17 20:07:21;;;;;;;11.73;5.47;;;;;;;8.54;49.89;101249.63;10455258;28;20220;-69
2022/04/17 20:12:26;;;;;;;14.30;5.43;;;;;;;8.38;52.10;101248.56;10455575;28;20737;-69
2022/04/17 20:17:29;;;;;;;11.97;5.20;;;;;;;8.28;49.92;101244.13;10455538;28;20225;-68
2022/04/17 20:22:32;;;;;;;12.37;4.73;;;;;;;8.29;50.13;101238.09;10437280;28;20244;-69
2022/04/17 20:27:37;;;;;;;11.40;5.67;;;;;;;8.28;49.69;101236.38;10457714;28;20327;-67
2022/04/17 20:32:40;;;;;;;14.03;6.50;;;;;;;8.10;49.81;101238.66;10455104;28;20189;-68
2022/04/17 20:37:44;;;;;;;15.50;6.53;;;;;;;8.04;51.45;101238.56;10458075;28;20235;-69
2022/04/17 20:42:49;;;;;;;14.70;6.43;;;;;;;7.91;51.26;101240.09;10462523;28;20597;-70
2022/04/17 20:53:18;;;;;;;17.03;7.10;;;;;;;7.73;52.61;101239.81;10441092;28;20247;-70
2022/04/17 20:58:23;;;;;;;16.80;6.93;;;;;;;7.67;52.14;101232.00;10462106;28;20693;-68
2022/04/17 21:03:26;;;;;;;19.37;7.10;;;;;;;7.60;51.17;101225.00;10461725;28;20231;-70
2022/04/17 21:08:29;;;;;;;17.33;6.80;;;;;;;7.72;52.00;101226.88;10461446;28;20228;-68
2022/04/17 21:13:37;;;;;;;15.53;6.90;;;;;;;7.61;52.18;101224.13;10461330;28;20236;-67
2022/04/17 21:18:40;;;;;;;13.00;6.30;;;;;;;7.59;53.93;101219.81;10461134;28;20280;-68
2022/04/17 21:23:43;;;;;;;13.90;6.73;;;;;;;7.56;55.53;101215.44;10463435;28;20224;-66
2022/04/17 21:28:48;;;;;;;14.47;8.37;;;;;;;7.53;51.97;101217.09;10460904;28;20648;-67
2022/04/17 21:33:52;;;;;;;19.23;8.80;;;;;;;7.50;52.70;101209.31;10460513;28;20274;-68
2022/04/17 21:38:55;;;;;;;20.43;9.33;;;;;;;7.59;52.20;101212.91;10487429;28;20224;-68
2022/04/17 21:44:02;;;;;;;17.67;8.83;;;;;;;7.55;52.53;101213.72;10501631;28;20230;-68
2022/04/17 21:49:06;;;;;;;22.80;9.77;;;;;;;7.51;55.97;101205.88;10501535;28;20224;-63
2022/04/17 21:54:09;;;;;;;23.77;10.33;;;;;;;7.43;54.74;101199.72;10501619;28;20220;-63
2022/04/17 21:59:14;;;;;;;21.37;10.27;;;;;;;7.37;54.29;101204.81;10474027;28;20216;-66
2022/04/17 22:04:29;;;;;;;21.97;11.13;;;;;;;7.32;52.91;101203.84;10459448;28;20213;-62
2022/04/17 22:09:32;;;;;;;22.20;10.37;;;;;;;7.34;56.80;101197.00;10459488;28;20228;-63
2022/04/17 22:14:38;;;;;;;26.90;11.40;;;;;;;7.21;56.88;101195.06;10459053;28;20324;-69
2022/04/17 22:19:41;;;;;;;21.47;10.70;;;;;;;7.26;57.34;101193.44;10461915;28;20752;-69
2022/04/17 22:24:46;;;;;;;24.47;11.47;;;;;;;7.18;57.48;101184.69;10461800;28;20252;-69
2022/04/17 22:29:51;;;;;;;29.00;12.13;;;;;;;7.14;57.90;101185.47;10462291;28;20223;-67
2022/04/17 22:34:54;;;;;;;24.93;10.73;;;;;;;7.03;57.70;101187.88;10461538;28;20289;-66
2022/04/17 22:39:58;;;;;;;21.60;10.50;;;;;;;6.99;56.32;101181.78;10461646;28;20201;-67
2022/04/17 22:45:02;;;;;;;27.43;11.77;;;;;;;6.93;57.23;101178.25;10461364;28;20237;-67
2022/04/17 22:50:07;;;;;;;27.70;12.07;;;;;;;6.85;57.92;101167.78;10461089;28;20300;-68
2022/04/17 22:55:11;;;;;;;25.40;11.40;;;;;;;6.77;58.20;101176.22;10460891;28;20285;-66
2022/04/17 23:05:37;;;;;;;18.33;8.43;;;;;;;6.79;55.84;101169.38;10460654;28;20235;-70
2022/04/17 23:10:40;;;;;;;21.00;10.40;;;;;;;6.65;58.65;101169.13;10460138;28;20652;-71
2022/04/17 23:15:45;;;;;;;23.70;10.80;;;;;;;6.51;59.22;101159.38;10460123;28;20231;-70
2022/04/17 23:20:48;;;;;;;26.50;10.93;;;;;;;6.48;61.09;101160.22;10459908;28;20216;-73
2022/04/17 23:25:52;;;;;;;19.53;9.63;;;;;;;6.57;57.14;101167.25;10459644;28;20583;-68
2022/04/17 23:30:57;;;;;;;19.63;7.87;;;;;;;6.49;57.20;101156.78;10459987;28;20216;-70
2022/04/17 23:36:00;;;;;;;17.37;7.03;;;;;;;6.43;55.95;101161.84;10459284;28;20706;-70
2022/04/17 23:41:03;;;;;;;16.53;6.60;;;;;;;6.24;56.93;101156.28;10459186;28;20614;-68
2022/04/17 23:46:08;;;;;;;12.90;6.17;;;;;;;6.22;57.02;101148.53;10459147;28;20221;-71
2022/04/17 23:51:12;;;;;;;14.33;7.10;;;;;;;5.96;59.83;101149.69;10458918;28;20224;-70
2022/04/17 23:56:15;;;;;;;16.23;6.77;;;;;;;5.98;58.99;101142.88;10458687;28;20227;-69
